createdAt,value
2022-12-25T00:02:25.699Z,2.90
2022-12-25T00:04:54.469Z,3.33
2022-12-25T00:07:23.088Z,2.72
2022-12-25T00:09:51.719Z,3.25
2022-12-25T00:12:21.029Z,3.60
2022-12-25T00:14:49.715Z,3.53
2022-12-25T00:17:19.798Z,3.83
2022-12-25T00:19:48.454Z,3.83
2022-12-25T00:22:17.335Z,4.03
2022-12-25T00:24:46.024Z,3.65
2022-12-25T00:27:14.774Z,4.82
2022-12-25T00:29:43.455Z,3.85
2022-12-25T00:32:12.091Z,3.60
2022-12-25T00:34:42.115Z,4.20
2022-12-25T00:37:10.726Z,3.60
2022-12-25T00:39:40.166Z,3.95
2022-12-25T00:42:21.327Z,4.35
2022-12-25T00:44:50.516Z,3.78
2022-12-25T00:47:19.624Z,3.75
2022-12-25T00:49:49.746Z,3.70
2022-12-25T00:52:18.554Z,3.90
2022-12-25T00:54:47.198Z,3.30
2022-12-25T00:57:15.958Z,3.45
2022-12-25T00:59:44.941Z,4.10
2022-12-25T01:02:26.206Z,4.00
2022-12-25T01:04:57.391Z,3.95
2022-12-25T01:07:26.771Z,3.55
2022-12-25T01:10:13.084Z,3.72
2022-12-25T01:12:42.966Z,3.60
2022-12-25T01:15:12.663Z,3.72
2022-12-25T01:17:41.500Z,3.47
2022-12-25T01:20:12.593Z,3.90
2022-12-25T01:22:41.301Z,3.65
2022-12-25T01:25:10.721Z,3.60
2022-12-25T01:27:39.800Z,3.80
2022-12-25T01:30:09.247Z,3.38
2022-12-25T01:32:37.881Z,3.67
2022-12-25T01:35:06.903Z,3.92
2022-12-25T01:37:36.905Z,3.40
2022-12-25T01:40:05.786Z,4.10
2022-12-25T01:42:34.490Z,3.92
2022-12-25T01:45:24.258Z,3.47
2022-12-25T01:47:53.054Z,3.50
2022-12-25T01:50:21.927Z,2.63
2022-12-25T01:52:52.808Z,3.35
2022-12-25T01:55:21.682Z,3.38
2022-12-25T01:57:50.501Z,2.92
2022-12-25T02:00:19.373Z,3.00
2022-12-25T02:02:48.225Z,2.92
2022-12-25T02:05:19.505Z,2.80
2022-12-25T02:07:48.931Z,2.50
2022-12-25T02:10:19.117Z,2.63
2022-12-25T02:12:49.537Z,2.75
2022-12-25T02:15:19.779Z,2.00
2022-12-25T02:17:52.397Z,2.60
2022-12-25T02:20:36.083Z,2.25
2022-12-25T02:23:15.578Z,2.17
2022-12-25T02:25:52.782Z,2.50
2022-12-25T02:28:24.670Z,2.55
2022-12-25T02:30:55.439Z,2.20
2022-12-25T02:33:44.478Z,2.53
2022-12-25T02:36:15.895Z,2.33
2022-12-25T02:39:04.686Z,2.15
2022-12-25T02:41:36.386Z,2.40
2022-12-25T02:44:26.440Z,2.38
2022-12-25T02:47:13.047Z,2.33
2022-12-25T02:50:00.410Z,2.08
2022-12-25T02:52:47.588Z,2.30
2022-12-25T02:55:34.928Z,2.30
2022-12-25T02:58:32.259Z,2.50
2022-12-25T03:01:22.640Z,2.35
2022-12-25T03:04:09.400Z,2.58
2022-12-25T03:06:44.731Z,2.20
2022-12-25T03:09:33.463Z,2.35
2022-12-25T03:12:04.442Z,2.35
2022-12-25T03:14:50.777Z,1.92
2022-12-25T03:17:20.798Z,2.40
2022-12-25T03:20:12.147Z,2.22
2022-12-25T03:22:58.995Z,2.05
2022-12-25T03:25:45.465Z,2.25
2022-12-25T03:28:14.049Z,2.10
2022-12-25T03:31:02.976Z,2.05
2022-12-25T03:33:44.938Z,1.90
2022-12-25T03:36:17.601Z,1.88
2022-12-25T03:39:11.594Z,2.17
2022-12-25T03:42:14.762Z,1.80
2022-12-25T03:45:00.556Z,2.13
2022-12-25T03:47:48.686Z,2.10
2022-12-25T03:50:38.373Z,2.10
2022-12-25T03:53:27.122Z,2.03
2022-12-25T03:56:14.206Z,2.47
2022-12-25T03:59:09.233Z,2.28
2022-12-25T04:01:55.789Z,2.50
2022-12-25T04:04:56.796Z,2.20
2022-12-25T04:07:44.057Z,2.28
2022-12-25T04:10:30.088Z,2.25
2022-12-25T04:13:16.236Z,2.22
2022-12-25T04:16:02.556Z,2.45
2022-12-25T04:18:49.054Z,2.30
2022-12-25T04:21:35.582Z,2.17
2022-12-25T04:24:23.574Z,2.28
2022-12-25T04:27:09.743Z,2.13
2022-12-25T04:29:56.349Z,2.63
2022-12-25T04:32:42.813Z,2.10
2022-12-25T04:35:28.856Z,2.10
2022-12-25T04:37:58.133Z,2.70
2022-12-25T04:40:28.137Z,2.40
2022-12-25T04:42:56.813Z,1.90
2022-12-25T04:45:25.865Z,2.03
2022-12-25T04:47:54.494Z,1.95
2022-12-25T04:50:23.159Z,2.03
2022-12-25T04:52:51.790Z,1.95
2022-12-25T04:55:20.572Z,2.08
2022-12-25T04:57:50.710Z,2.03
2022-12-25T05:00:19.737Z,2.13
2022-12-25T05:02:48.576Z,1.90
2022-12-25T05:05:17.495Z,1.95
2022-12-25T05:07:46.094Z,1.88
2022-12-25T05:10:14.816Z,2.00
2022-12-25T05:12:43.646Z,2.13
2022-12-25T05:15:13.914Z,2.00
2022-12-25T05:17:42.530Z,2.30
2022-12-25T05:20:11.287Z,2.13
2022-12-25T05:22:39.917Z,1.98
2022-12-25T05:25:09.094Z,1.85
2022-12-25T05:27:37.807Z,1.70
2022-12-25T05:30:06.846Z,2.00
2022-12-25T05:32:36.845Z,2.10
2022-12-25T05:35:06.572Z,2.17
2022-12-25T05:37:35.191Z,2.20
2022-12-25T05:40:03.912Z,1.83
2022-12-25T05:42:32.741Z,1.95
2022-12-25T05:45:01.336Z,2.20
2022-12-25T05:47:30.003Z,2.00
2022-12-25T05:50:00.178Z,1.73
2022-12-25T05:52:32.909Z,2.38
2022-12-25T05:55:01.636Z,2.10
2022-12-25T05:57:30.413Z,1.98
2022-12-25T05:59:59.098Z,2.45
2022-12-25T06:02:27.867Z,2.00
2022-12-25T06:04:56.646Z,2.22
2022-12-25T06:07:26.663Z,1.95
2022-12-25T06:09:55.279Z,2.20
2022-12-25T06:12:24.366Z,1.98
2022-12-25T06:14:53.045Z,1.88
2022-12-25T06:17:23.080Z,2.05
2022-12-25T06:19:51.765Z,2.08
2022-12-25T06:22:20.366Z,1.88
2022-12-25T06:24:50.536Z,2.22
2022-12-25T06:27:19.088Z,1.90
2022-12-25T06:29:47.733Z,2.17
2022-12-25T06:32:16.424Z,2.00
2022-12-25T06:34:45.340Z,2.22
2022-12-25T06:37:14.040Z,2.15
2022-12-25T06:39:42.606Z,2.13
2022-12-25T06:42:12.569Z,2.15
2022-12-25T06:44:41.112Z,1.88
2022-12-25T06:47:09.763Z,1.80
2022-12-25T06:49:38.676Z,2.13
2022-12-25T06:52:07.277Z,2.10
2022-12-25T06:54:35.961Z,2.05
2022-12-25T06:57:04.602Z,1.75
2022-12-25T06:59:34.637Z,2.40
2022-12-25T07:02:03.698Z,2.20
2022-12-25T07:04:35.675Z,2.42
2022-12-25T07:07:08.665Z,2.13
2022-12-25T07:09:38.860Z,1.83
2022-12-25T07:12:08.876Z,1.75
2022-12-25T07:14:38.920Z,2.00
2022-12-25T07:17:07.573Z,1.92
2022-12-25T07:19:41.104Z,2.13
2022-12-25T07:22:13.242Z,1.98
2022-12-25T07:24:41.887Z,2.33
2022-12-25T07:27:10.557Z,2.65
2022-12-25T07:29:40.597Z,2.40
2022-12-25T07:32:09.554Z,2.20
2022-12-25T07:34:38.228Z,2.85
2022-12-25T07:37:06.844Z,2.72
2022-12-25T07:39:35.608Z,2.75
2022-12-25T07:42:04.389Z,2.50
2022-12-25T07:44:33.252Z,2.95
2022-12-25T07:47:03.280Z,3.05
2022-12-25T07:49:31.908Z,3.22
2022-12-25T07:52:00.678Z,3.00
2022-12-25T07:54:29.299Z,2.92
2022-12-25T07:56:57.951Z,2.80
2022-12-25T07:59:26.665Z,3.00
2022-12-25T08:01:55.687Z,2.85
2022-12-25T08:04:25.972Z,2.60
2022-12-25T08:06:54.675Z,3.08
2022-12-25T08:09:23.351Z,2.78
2022-12-25T08:11:51.928Z,2.75
2022-12-25T08:14:20.598Z,3.13
2022-12-25T08:16:49.294Z,2.70
2022-12-25T08:19:18.053Z,3.35
2022-12-25T08:21:48.094Z,6.57
2022-12-25T08:24:17.059Z,3.35
2022-12-25T08:26:45.695Z,3.00
2022-12-25T08:29:14.325Z,2.78
2022-12-25T08:31:46.472Z,2.80
2022-12-25T08:34:15.517Z,2.63
2022-12-25T08:36:44.182Z,2.88
2022-12-25T08:39:14.169Z,3.42
2022-12-25T08:41:42.875Z,3.70
2022-12-25T08:44:13.684Z,3.20
2022-12-25T08:46:42.393Z,4.10
2022-12-25T08:49:11.075Z,3.53
2022-12-25T08:51:39.842Z,3.85
2022-12-25T08:54:08.745Z,4.63
2022-12-25T08:56:38.767Z,8.30
2022-12-25T08:59:07.391Z,4.63
2022-12-25T09:01:36.154Z,4.20
2022-12-25T09:04:05.010Z,3.70
2022-12-25T09:06:33.675Z,4.30
2022-12-25T09:09:02.459Z,4.47
2022-12-25T09:11:31.082Z,4.40
2022-12-25T09:14:01.931Z,4.10
2022-12-25T09:16:30.654Z,4.07
2022-12-25T09:18:59.336Z,4.32
2022-12-25T09:21:28.009Z,4.10
2022-12-25T09:23:56.729Z,5.28
2022-12-25T09:26:27.234Z,5.00
2022-12-25T09:28:55.943Z,4.90
2022-12-25T09:31:26.217Z,4.70
2022-12-25T09:33:57.872Z,5.45
2022-12-25T09:36:26.814Z,5.60
2022-12-25T09:38:55.478Z,6.00
2022-12-25T09:41:29.328Z,5.68
2022-12-25T09:44:00.738Z,6.38
2022-12-25T09:46:37.298Z,6.00
2022-12-25T09:49:08.061Z,6.55
2022-12-25T09:51:39.058Z,6.07
2022-12-25T09:54:11.767Z,6.25
2022-12-25T09:56:40.507Z,6.38
2022-12-25T09:59:13.789Z,6.10
2022-12-25T10:01:49.477Z,6.53
2022-12-25T10:04:37.447Z,7.45
2022-12-25T10:07:12.589Z,6.90
2022-12-25T10:09:47.065Z,7.13
2022-12-25T10:12:27.224Z,5.97
2022-12-25T10:15:02.358Z,5.45
2022-12-25T10:17:38.516Z,6.47
2022-12-25T10:20:13.149Z,6.93
2022-12-25T10:22:42.991Z,7.25
2022-12-25T10:25:16.631Z,6.55
2022-12-25T10:27:45.262Z,5.97
2022-12-25T10:30:18.115Z,6.03
2022-12-25T10:32:48.736Z,5.82
2022-12-25T10:35:18.726Z,5.63
2022-12-25T10:37:50.518Z,5.60
2022-12-25T10:40:27.594Z,5.35
2022-12-25T10:42:57.683Z,6.18
2022-12-25T10:45:26.482Z,5.78
2022-12-25T10:48:07.130Z,4.80
2022-12-25T10:50:36.698Z,4.82
2022-12-25T10:53:09.349Z,5.70
2022-12-25T10:55:38.093Z,8.65
2022-12-25T10:58:07.770Z,5.72
2022-12-25T11:00:36.491Z,4.97
2022-12-25T11:03:06.652Z,4.78
2022-12-25T11:05:36.936Z,4.20
2022-12-25T11:08:06.029Z,4.55
2022-12-25T11:10:36.731Z,4.57
2022-12-25T11:13:07.790Z,4.32
2022-12-25T11:15:38.892Z,4.15
2022-12-25T11:18:19.709Z,4.20
2022-12-25T11:20:52.371Z,4.63
2022-12-25T11:23:21.805Z,4.43
2022-12-25T11:25:57.329Z,4.47
2022-12-25T11:28:26.889Z,4.63
2022-12-25T11:30:59.256Z,4.00
2022-12-25T11:33:32.311Z,4.20
2022-12-25T11:36:02.049Z,4.28
2022-12-25T11:38:30.725Z,3.83
2022-12-25T11:41:01.389Z,3.90
2022-12-25T11:43:32.086Z,3.50
2022-12-25T11:46:06.503Z,3.97
2022-12-25T11:48:38.912Z,4.18
2022-12-25T11:51:08.461Z,3.60
2022-12-25T11:53:39.972Z,3.90
2022-12-25T11:56:10.432Z,3.72
2022-12-25T11:58:40.930Z,4.20
2022-12-25T12:01:17.220Z,3.80
2022-12-25T12:03:47.694Z,4.10
2022-12-25T12:06:19.309Z,3.63
2022-12-25T12:08:49.129Z,4.00
2022-12-25T12:11:21.399Z,4.07
2022-12-25T12:14:00.763Z,5.50
2022-12-25T12:16:29.528Z,6.15
2022-12-25T12:18:59.673Z,4.60
2022-12-25T12:21:29.549Z,4.10
2022-12-25T12:23:59.306Z,3.70
2022-12-25T12:26:29.149Z,4.25
2022-12-25T12:28:59.653Z,4.53
2022-12-25T12:31:38.126Z,4.20
2022-12-25T12:34:08.627Z,4.57
2022-12-25T12:36:37.388Z,4.30
2022-12-25T12:39:06.911Z,4.25
2022-12-25T12:41:44.198Z,4.03
2022-12-25T12:44:13.708Z,3.30
2022-12-25T12:46:51.800Z,3.83
2022-12-25T12:49:24.255Z,3.80
2022-12-25T12:52:03.935Z,3.70
2022-12-25T12:54:32.540Z,3.92
2022-12-25T12:57:02.179Z,3.30
2022-12-25T12:59:36.596Z,3.10
2022-12-25T13:02:14.787Z,3.10
2022-12-25T13:04:52.299Z,3.72
2022-12-25T13:07:29.175Z,3.35
2022-12-25T13:10:03.475Z,3.13
2022-12-25T13:12:32.220Z,4.53
2022-12-25T13:15:00.917Z,6.65
2022-12-25T13:17:30.712Z,6.40
2022-12-25T13:20:02.318Z,4.22
2022-12-25T13:22:33.041Z,6.55
2022-12-25T13:25:02.536Z,6.03
2022-12-25T13:27:31.843Z,5.47
2022-12-25T13:30:00.942Z,5.55
2022-12-25T13:32:33.842Z,5.28
2022-12-25T13:35:03.876Z,4.00
2022-12-25T13:37:33.219Z,4.18
2022-12-25T13:40:02.653Z,3.90
2022-12-25T13:42:32.796Z,3.63
2022-12-25T13:45:02.566Z,3.78
2022-12-25T13:47:33.533Z,4.13
2022-12-25T13:50:03.417Z,4.63
2022-12-25T13:52:36.308Z,6.65
2022-12-25T13:55:06.220Z,5.68
2022-12-25T13:57:37.098Z,5.90
2022-12-25T14:00:07.168Z,4.85
2022-12-25T14:02:38.476Z,5.45
2022-12-25T14:05:24.220Z,5.30
2022-12-25T14:07:55.088Z,5.57
2022-12-25T14:10:24.235Z,6.75
2022-12-25T14:12:53.413Z,6.32
2022-12-25T14:15:22.944Z,6.15
2022-12-25T14:17:52.788Z,7.85
2022-12-25T14:20:26.174Z,7.97
2022-12-25T14:22:57.438Z,7.80
2022-12-25T14:25:30.577Z,7.97
2022-12-25T14:27:59.253Z,8.07
2022-12-25T14:30:29.378Z,8.95
2022-12-25T14:32:58.883Z,9.07
2022-12-25T14:35:27.701Z,8.88
2022-12-25T14:38:00.475Z,8.55
2022-12-25T14:40:31.447Z,8.70
2022-12-25T14:43:01.720Z,9.75
2022-12-25T14:45:32.660Z,8.27
2022-12-25T14:48:04.122Z,8.25
2022-12-25T14:50:34.407Z,7.72
2022-12-25T14:53:04.722Z,7.85
2022-12-25T14:55:33.541Z,8.20
2022-12-25T14:58:04.894Z,9.85
2022-12-25T15:00:35.592Z,8.00
2022-12-25T15:03:06.431Z,8.00
2022-12-25T15:05:36.127Z,8.40
2022-12-25T15:08:07.938Z,12.07
2022-12-25T15:13:25.879Z,17.58
2022-12-25T15:15:56.654Z,14.20
2022-12-25T15:18:26.261Z,12.40
2022-12-25T15:20:56.292Z,11.02
2022-12-25T15:23:26.433Z,10.65
2022-12-25T15:25:55.148Z,8.65
2022-12-25T15:28:23.859Z,7.07
2022-12-25T15:30:52.498Z,7.47
2022-12-25T15:33:21.484Z,7.32
2022-12-25T15:35:50.217Z,7.65
2022-12-25T15:38:18.909Z,9.15
2022-12-25T15:40:49.104Z,8.13
2022-12-25T15:43:39.958Z,7.85
2022-12-25T15:46:07.596Z,6.93
2022-12-25T15:48:36.352Z,6.15
2022-12-25T15:51:05.021Z,6.35
2022-12-25T15:53:33.636Z,5.80
2022-12-25T15:56:03.715Z,5.72
2022-12-25T15:58:32.390Z,6.13
2022-12-25T16:01:01.018Z,5.75
2022-12-25T16:03:29.833Z,5.18
2022-12-25T16:05:58.466Z,5.10
2022-12-25T16:08:27.090Z,5.13
2022-12-25T16:10:55.741Z,5.15
2022-12-25T16:13:25.751Z,9.02
2022-12-25T16:15:54.479Z,9.23
2022-12-25T16:18:23.944Z,6.43
2022-12-25T16:20:53.166Z,5.53
2022-12-25T16:23:21.955Z,5.65
2022-12-25T16:25:50.630Z,5.68
2022-12-25T16:28:19.346Z,5.97
2022-12-25T16:30:49.468Z,5.70
2022-12-25T16:33:18.094Z,4.55
2022-12-25T16:35:48.405Z,4.55
2022-12-25T16:38:18.079Z,5.60
2022-12-25T16:40:47.137Z,5.95
2022-12-25T16:43:22.043Z,6.00
2022-12-25T16:45:54.101Z,5.95
2022-12-25T16:48:22.964Z,7.60
2022-12-25T16:50:51.635Z,9.02
2022-12-25T16:53:20.175Z,8.18
2022-12-25T16:55:48.824Z,8.82
2022-12-25T16:58:17.385Z,9.77
2022-12-25T17:00:49.517Z,9.25
2022-12-25T17:03:20.284Z,9.20
2022-12-25T17:05:49.090Z,13.75
2022-12-25T17:08:17.633Z,14.25
2022-12-25T17:10:46.392Z,11.20
2022-12-25T17:13:15.220Z,6.97
2022-12-25T17:15:48.501Z,7.55
2022-12-25T17:18:22.187Z,7.30
2022-12-25T17:20:51.321Z,6.57
2022-12-25T17:23:19.954Z,6.40
2022-12-25T17:25:48.709Z,6.93
2022-12-25T17:28:17.324Z,7.20
2022-12-25T17:30:45.975Z,6.15
2022-12-25T17:33:14.617Z,5.30
2022-12-25T17:35:44.613Z,5.43
2022-12-25T17:38:13.294Z,4.85
2022-12-25T17:40:41.920Z,5.07
2022-12-25T17:43:14.332Z,4.63
2022-12-25T17:45:47.608Z,5.10
2022-12-25T17:48:16.197Z,5.65
2022-12-25T17:50:46.742Z,4.78
2022-12-25T17:53:15.530Z,3.90
2022-12-25T17:55:44.422Z,4.40
2022-12-25T17:58:13.177Z,3.97
2022-12-25T18:00:41.920Z,3.65
2022-12-25T18:03:11.938Z,3.35
2022-12-25T18:05:41.954Z,3.17
2022-12-25T18:08:11.983Z,3.30
2022-12-25T18:10:41.185Z,3.15
2022-12-25T18:13:09.851Z,3.28
2022-12-25T18:15:38.821Z,3.83
2022-12-25T18:18:08.015Z,3.72
2022-12-25T18:20:40.092Z,3.15
2022-12-25T18:23:09.321Z,3.13
2022-12-25T18:25:42.906Z,4.07
2022-12-25T18:28:12.032Z,3.63
2022-12-25T18:30:41.150Z,3.60
2022-12-25T18:33:09.852Z,3.40
2022-12-25T18:35:40.484Z,3.72
2022-12-25T18:38:09.792Z,3.40
2022-12-25T18:40:43.200Z,3.50
2022-12-25T18:43:12.038Z,3.55
2022-12-25T18:45:41.414Z,3.33
2022-12-25T18:48:10.360Z,3.22
2022-12-25T18:50:40.389Z,3.20
2022-12-25T18:53:09.234Z,4.10
2022-12-25T18:55:37.915Z,5.65
2022-12-25T18:58:08.067Z,4.05
2022-12-25T19:00:36.866Z,3.83
2022-12-25T19:03:05.931Z,4.13
2022-12-25T19:05:34.621Z,3.88
2022-12-25T19:08:03.427Z,3.58
2022-12-25T19:10:32.062Z,3.88
2022-12-25T19:13:00.730Z,4.22
2022-12-25T19:15:30.923Z,4.15
2022-12-25T19:17:59.916Z,3.67
2022-12-25T19:20:28.528Z,2.95
2022-12-25T19:22:57.169Z,3.63
2022-12-25T19:25:26.133Z,3.60
2022-12-25T19:27:54.803Z,3.65
2022-12-25T19:30:23.454Z,3.35
2022-12-25T19:32:53.893Z,3.42
2022-12-25T19:35:22.553Z,3.60
2022-12-25T19:37:51.183Z,2.88
2022-12-25T19:40:19.857Z,3.03
2022-12-25T19:42:48.431Z,3.63
2022-12-25T19:45:17.167Z,3.40
2022-12-25T19:47:45.870Z,3.90
2022-12-25T19:50:15.903Z,4.18
2022-12-25T19:52:45.236Z,3.58
2022-12-25T19:55:13.857Z,3.75
2022-12-25T19:57:42.522Z,3.65
2022-12-25T20:00:11.537Z,3.35
2022-12-25T20:02:42.343Z,3.53
2022-12-25T20:05:11.171Z,3.05
2022-12-25T20:07:41.291Z,3.15
2022-12-25T20:10:10.278Z,3.30
2022-12-25T20:12:38.831Z,2.90
2022-12-25T20:15:08.037Z,2.70
2022-12-25T20:17:36.681Z,3.20
2022-12-25T20:20:06.314Z,3.20
2022-12-25T20:22:35.059Z,2.80
2022-12-25T20:25:09.027Z,3.08
2022-12-25T20:27:37.757Z,2.90
2022-12-25T20:30:06.835Z,2.90
2022-12-25T20:32:35.863Z,2.20
2022-12-25T20:35:04.505Z,2.33
2022-12-25T20:37:33.147Z,2.70
2022-12-25T20:40:01.758Z,2.80
2022-12-25T20:42:31.746Z,2.80
2022-12-25T20:45:00.529Z,2.22
2022-12-25T20:47:30.066Z,2.60
2022-12-25T20:49:59.188Z,2.63
2022-12-25T20:52:27.965Z,2.45
2022-12-25T20:54:56.876Z,2.10
2022-12-25T20:57:27.599Z,2.35
2022-12-25T20:59:57.659Z,2.30
2022-12-25T21:02:34.769Z,2.55
2022-12-25T21:05:06.461Z,2.50
2022-12-25T21:07:35.313Z,2.22
2022-12-25T21:10:04.002Z,2.33
2022-12-25T21:12:32.712Z,2.42
2022-12-25T21:15:02.767Z,2.83
2022-12-25T21:17:32.041Z,3.13
2022-12-25T21:20:00.683Z,5.10
2022-12-25T21:22:30.139Z,2.60
2022-12-25T21:24:58.834Z,3.13
2022-12-25T21:27:27.578Z,2.20
2022-12-25T21:29:56.450Z,2.20
2022-12-25T21:32:44.028Z,2.10
2022-12-25T21:35:12.675Z,1.98
2022-12-25T21:37:41.349Z,2.00
2022-12-25T21:40:16.131Z,2.00
2022-12-25T21:42:45.228Z,1.80
2022-12-25T21:45:14.002Z,1.88
2022-12-25T21:48:01.760Z,2.13
2022-12-25T21:50:49.687Z,2.03
2022-12-25T21:53:18.641Z,2.50
2022-12-25T21:55:57.191Z,2.17
2022-12-25T21:58:26.065Z,2.38
2022-12-25T22:00:54.740Z,2.28
2022-12-25T22:03:25.260Z,2.45
2022-12-25T22:06:17.701Z,2.47
2022-12-25T22:08:49.678Z,2.15
2022-12-25T22:11:35.826Z,2.40
2022-12-25T22:14:50.532Z,2.67
2022-12-25T22:17:28.507Z,2.10
2022-12-25T22:19:58.881Z,2.22
2022-12-25T22:22:28.597Z,2.25
2022-12-25T22:24:58.169Z,2.28
2022-12-25T22:27:27.533Z,2.30
2022-12-25T22:29:56.214Z,2.55
2022-12-25T22:32:24.870Z,2.58
2022-12-25T22:34:53.677Z,2.45
2022-12-25T22:37:23.850Z,2.40
2022-12-25T22:39:52.562Z,2.22
2022-12-25T22:42:21.615Z,2.60
2022-12-25T22:44:50.388Z,2.55
2022-12-25T22:47:19.405Z,2.72
2022-12-25T22:49:48.149Z,2.45
2022-12-25T22:52:16.932Z,2.13
2022-12-25T22:54:46.986Z,2.70
2022-12-25T22:57:15.849Z,3.10
2022-12-25T22:59:44.612Z,2.10
2022-12-25T23:02:13.305Z,2.60
2022-12-25T23:04:42.168Z,2.60
2022-12-25T23:07:14.314Z,3.03
2022-12-25T23:09:43.317Z,2.58
2022-12-25T23:12:39.745Z,3.05
2022-12-25T23:15:07.938Z,2.58
2022-12-25T23:17:54.392Z,2.58
2022-12-25T23:20:40.935Z,2.60
2022-12-25T23:23:28.495Z,2.10
2022-12-25T23:26:09.261Z,2.78
2022-12-25T23:28:58.263Z,2.70
2022-12-25T23:31:28.955Z,2.90
2022-12-25T23:33:57.841Z,2.67
2022-12-25T23:36:26.824Z,2.90
2022-12-25T23:38:55.507Z,2.30
2022-12-25T23:41:24.458Z,2.60
2022-12-25T23:43:54.725Z,2.72
2022-12-25T23:46:23.793Z,2.55
2022-12-25T23:48:52.462Z,2.53
2022-12-25T23:51:21.210Z,2.85
2022-12-25T23:53:49.883Z,2.55
2022-12-25T23:56:18.658Z,2.70
2022-12-25T23:58:51.780Z,3.03
